createdAt,value
2019-02-22T00:01:33.573Z,95.00
2019-02-22T00:02:38.721Z,94.90
2019-02-22T00:03:41.470Z,95.10
2019-02-22T00:04:44.037Z,95.20
2019-02-22T00:05:46.572Z,95.10
2019-02-22T00:06:49.125Z,95.20
2019-02-22T00:07:51.644Z,95.20
2019-02-22T00:08:54.184Z,95.00
2019-02-22T00:09:56.718Z,95.20
2019-02-22T00:10:59.243Z,95.30
2019-02-22T00:12:01.788Z,95.30
2019-02-22T00:13:04.461Z,95.20
2019-02-22T00:14:07.237Z,95.20
2019-02-22T00:15:09.757Z,95.10
2019-02-22T00:16:12.316Z,95.30
2019-02-22T00:17:14.845Z,95.10
2019-02-22T00:18:17.376Z,95.20
2019-02-22T00:19:19.905Z,95.30
2019-02-22T00:20:22.502Z,95.20
2019-02-22T00:21:25.058Z,95.20
2019-02-22T00:22:27.629Z,95.20
2019-02-22T00:23:30.155Z,94.70
2019-02-22T00:24:32.964Z,95.00
2019-02-22T00:25:35.763Z,95.00
2019-02-22T00:26:38.498Z,95.20
2019-02-22T00:27:41.280Z,95.00
2019-02-22T00:28:43.961Z,95.10
2019-02-22T00:29:46.523Z,95.00
2019-02-22T00:30:49.034Z,95.00
2019-02-22T00:31:51.671Z,95.10
2019-02-22T00:32:54.354Z,95.10
2019-02-22T00:33:56.869Z,95.30
2019-02-22T00:34:59.406Z,95.00
2019-02-22T00:36:02.178Z,95.30
2019-02-22T00:37:04.859Z,95.40
2019-02-22T00:38:07.459Z,95.40
2019-02-22T00:39:09.993Z,95.50
2019-02-22T00:40:12.525Z,95.30
2019-02-22T00:41:15.076Z,95.20
2019-02-22T00:42:17.779Z,95.30
2019-02-22T00:43:20.281Z,95.20
2019-02-22T00:44:22.840Z,95.30
2019-02-22T00:45:25.493Z,95.20
2019-02-22T00:46:28.018Z,95.10
2019-02-22T00:47:30.532Z,95.20
2019-02-22T00:48:33.062Z,95.30
2019-02-22T00:49:35.554Z,95.30
2019-02-22T00:50:38.092Z,95.30
2019-02-22T00:51:40.626Z,95.40
2019-02-22T00:52:43.144Z,95.40
2019-02-22T00:53:47.485Z,95.40
2019-02-22T00:54:50.036Z,95.40
2019-02-22T00:55:52.602Z,95.50
2019-02-22T00:56:55.119Z,95.50
2019-02-22T00:57:58.003Z,95.50
2019-02-22T00:59:00.646Z,95.60
2019-02-22T01:00:03.512Z,95.50
2019-02-22T01:01:06.089Z,95.30
2019-02-22T01:02:08.693Z,95.50
2019-02-22T01:03:11.388Z,95.80
2019-02-22T01:04:14.115Z,95.60
2019-02-22T01:05:18.572Z,95.80
2019-02-22T01:06:23.269Z,95.60
2019-02-22T01:07:27.104Z,95.70
2019-02-22T01:08:30.159Z,95.60
2019-02-22T01:09:33.116Z,95.60
2019-02-22T01:10:36.151Z,95.60
2019-02-22T01:11:40.683Z,95.60
2019-02-22T01:12:44.645Z,95.70
2019-02-22T01:13:47.835Z,95.80
2019-02-22T01:14:50.520Z,95.70
2019-02-22T01:15:53.282Z,95.80
2019-02-22T01:16:57.366Z,95.80
2019-02-22T01:18:00.671Z,95.70
2019-02-22T01:19:03.223Z,95.80
2019-02-22T01:20:06.276Z,95.70
2019-02-22T01:21:09.875Z,95.60
2019-02-22T01:22:13.086Z,95.60
2019-02-22T01:23:17.498Z,95.60
2019-02-22T01:24:20.270Z,95.70
2019-02-22T01:25:22.979Z,95.70
2019-02-22T01:26:25.614Z,95.80
2019-02-22T01:27:28.374Z,95.80
2019-02-22T01:28:30.930Z,95.80
2019-02-22T01:29:33.649Z,95.80
2019-02-22T01:30:36.709Z,95.80
2019-02-22T01:31:39.328Z,95.90
2019-02-22T01:32:41.961Z,95.90
2019-02-22T01:33:44.519Z,95.80
2019-02-22T01:34:47.181Z,95.80
2019-02-22T01:35:49.870Z,95.70
2019-02-22T01:36:52.421Z,95.70
2019-02-22T01:37:54.950Z,95.70
2019-02-22T01:38:57.502Z,95.60
2019-02-22T01:40:00.049Z,95.70
2019-02-22T01:41:02.807Z,95.70
2019-02-22T01:42:05.371Z,95.70
2019-02-22T01:43:07.910Z,95.50
2019-02-22T01:44:18.776Z,95.90
2019-02-22T01:45:21.285Z,95.90
2019-02-22T01:46:23.820Z,95.60
2019-02-22T01:47:26.504Z,95.70
2019-02-22T01:48:29.056Z,95.80
2019-02-22T01:49:31.578Z,95.80
2019-02-22T01:50:34.100Z,95.90
2019-02-22T01:51:36.597Z,95.80
2019-02-22T01:52:39.173Z,96.00
2019-02-22T01:53:41.731Z,95.90
2019-02-22T01:54:44.223Z,95.90
2019-02-22T01:55:46.738Z,95.90
2019-02-22T01:56:49.266Z,95.90
2019-02-22T01:57:51.900Z,95.90
2019-02-22T01:58:54.487Z,95.50
2019-02-22T01:59:56.987Z,95.50
2019-02-22T02:00:59.534Z,95.60
2019-02-22T02:02:02.155Z,95.60
2019-02-22T02:03:04.725Z,95.40
2019-02-22T02:04:07.341Z,95.80
2019-02-22T02:05:09.930Z,95.70
2019-02-22T02:06:12.461Z,96.10
2019-02-22T02:07:28.022Z,95.60
2019-02-22T02:08:30.880Z,95.60
2019-02-22T02:09:33.489Z,95.60
2019-02-22T02:10:36.177Z,95.60
2019-02-22T02:11:38.755Z,95.60
2019-02-22T02:12:41.449Z,95.50
2019-02-22T02:13:44.309Z,95.60
2019-02-22T02:14:46.892Z,95.40
2019-02-22T02:15:49.640Z,95.50
2019-02-22T02:16:52.233Z,95.50
2019-02-22T02:17:54.897Z,95.50
2019-02-22T02:18:57.608Z,95.40
2019-02-22T02:20:01.040Z,95.40
2019-02-22T02:21:06.896Z,95.50
2019-02-22T02:22:09.544Z,95.50
2019-02-22T02:23:13.988Z,95.40
2019-02-22T02:24:16.546Z,95.50
2019-02-22T02:25:19.239Z,95.30
2019-02-22T02:26:22.064Z,95.60
2019-02-22T02:27:24.643Z,95.60
2019-02-22T02:28:27.227Z,95.80
2019-02-22T02:29:31.575Z,95.80
2019-02-22T02:30:34.155Z,95.80
2019-02-22T02:31:36.902Z,95.90
2019-02-22T02:32:39.463Z,95.70
2019-02-22T02:33:42.251Z,95.60
2019-02-22T02:34:44.778Z,95.70
2019-02-22T02:35:47.748Z,95.60
2019-02-22T02:36:50.662Z,95.70
2019-02-22T02:37:53.394Z,95.90
2019-02-22T02:38:56.214Z,95.70
2019-02-22T02:39:58.886Z,95.80
2019-02-22T02:41:09.842Z,95.80
2019-02-22T02:42:06.192Z,96.00
2019-02-22T02:43:08.770Z,95.90
2019-02-22T02:44:11.321Z,96.00
2019-02-22T02:45:13.904Z,96.00
2019-02-22T02:46:16.471Z,95.90
2019-02-22T02:47:19.116Z,95.80
2019-02-22T02:48:22.200Z,95.80
2019-02-22T02:49:24.794Z,95.70
2019-02-22T02:50:29.213Z,95.80
2019-02-22T02:51:31.903Z,95.70
2019-02-22T02:52:34.548Z,96.00
2019-02-22T02:53:37.292Z,95.80
2019-02-22T02:54:39.952Z,95.80
2019-02-22T02:55:43.383Z,95.90
2019-02-22T02:56:46.362Z,95.80
2019-02-22T02:57:55.371Z,95.90
2019-02-22T02:58:58.116Z,95.60
2019-02-22T03:00:00.674Z,95.70
2019-02-22T03:01:04.337Z,95.60
2019-02-22T03:02:11.522Z,95.60
2019-02-22T03:03:14.191Z,95.80
2019-02-22T03:04:16.853Z,95.90
2019-02-22T03:05:20.552Z,96.20
2019-02-22T03:06:48.776Z,95.90
2019-02-22T03:07:51.303Z,95.90
2019-02-22T03:08:53.920Z,95.90
2019-02-22T03:09:56.667Z,95.90
2019-02-22T03:10:59.416Z,95.90
2019-02-22T03:12:04.452Z,95.90
2019-02-22T03:13:07.107Z,95.80
2019-02-22T03:14:10.137Z,95.90
2019-02-22T03:15:13.425Z,95.50
2019-02-22T03:16:16.750Z,95.60
2019-02-22T03:17:19.995Z,95.80
2019-02-22T03:18:22.576Z,95.80
2019-02-22T03:19:25.543Z,95.80
2019-02-22T03:20:28.264Z,95.60
2019-02-22T03:21:31.093Z,95.80
2019-02-22T03:22:33.689Z,95.70
2019-02-22T03:23:36.531Z,95.70
2019-02-22T03:24:39.087Z,96.00
2019-02-22T03:25:41.907Z,95.70
2019-02-22T03:26:44.497Z,95.70
2019-02-22T03:27:47.396Z,95.60
2019-02-22T03:28:50.500Z,95.60
2019-02-22T03:29:53.379Z,95.80
2019-02-22T03:30:56.183Z,95.90
2019-02-22T03:31:58.828Z,95.80
2019-02-22T03:33:01.588Z,95.90
2019-02-22T03:34:04.444Z,96.00
2019-02-22T03:35:07.158Z,96.00
2019-02-22T03:36:09.850Z,96.20
2019-02-22T03:37:12.557Z,96.20
2019-02-22T03:38:15.190Z,96.30
2019-02-22T03:39:17.887Z,96.20
2019-02-22T03:40:20.699Z,96.20
2019-02-22T03:41:32.232Z,96.10
2019-02-22T03:42:27.952Z,96.20
2019-02-22T03:43:30.732Z,96.00
2019-02-22T03:44:33.639Z,96.10
2019-02-22T03:45:37.429Z,96.10
2019-02-22T03:46:40.137Z,96.00
2019-02-22T03:47:42.662Z,95.90
2019-02-22T03:48:45.339Z,96.00
2019-02-22T03:49:47.992Z,96.00
2019-02-22T03:50:50.592Z,96.00
2019-02-22T03:51:53.317Z,96.00
2019-02-22T03:53:10.521Z,96.00
2019-02-22T03:54:13.145Z,96.00
2019-02-22T03:55:15.711Z,96.30
2019-02-22T03:56:18.264Z,96.20
2019-02-22T03:57:22.510Z,96.10
2019-02-22T03:58:25.187Z,96.20
2019-02-22T03:59:29.025Z,96.20
2019-02-22T04:00:31.629Z,96.10
2019-02-22T04:01:34.437Z,96.10
2019-02-22T04:02:37.077Z,95.90
2019-02-22T04:03:39.655Z,95.80
2019-02-22T04:04:44.983Z,96.20
2019-02-22T04:05:47.614Z,95.90
2019-02-22T04:06:50.294Z,96.10
2019-02-22T04:07:52.926Z,96.00
2019-02-22T04:08:55.543Z,96.00
2019-02-22T04:09:58.264Z,96.10
2019-02-22T04:11:00.814Z,96.20
2019-02-22T04:12:03.404Z,96.00
2019-02-22T04:13:06.024Z,95.70
2019-02-22T04:14:08.783Z,95.90
2019-02-22T04:15:11.619Z,96.10
2019-02-22T04:16:14.312Z,95.90
2019-02-22T04:17:19.528Z,95.60
2019-02-22T04:18:22.614Z,95.80
2019-02-22T04:19:25.482Z,95.40
2019-02-22T04:20:28.315Z,95.60
2019-02-22T04:21:31.041Z,95.50
2019-02-22T04:22:33.994Z,95.40
2019-02-22T04:23:36.672Z,95.70
2019-02-22T04:24:39.429Z,95.70
2019-02-22T04:25:42.015Z,95.70
2019-02-22T04:26:44.645Z,95.80
2019-02-22T04:27:47.351Z,95.70
2019-02-22T04:28:53.385Z,95.80
2019-02-22T04:29:56.189Z,95.90
2019-02-22T04:31:01.788Z,95.80
2019-02-22T04:32:06.646Z,95.70
2019-02-22T04:33:09.207Z,95.70
2019-02-22T04:34:11.930Z,95.70
2019-02-22T04:35:14.592Z,95.90
2019-02-22T04:36:17.431Z,95.70
2019-02-22T04:37:20.323Z,95.70
2019-02-22T04:38:22.975Z,95.80
2019-02-22T04:39:25.651Z,95.60
2019-02-22T04:40:28.735Z,95.70
2019-02-22T04:41:31.335Z,95.90
2019-02-22T04:42:33.932Z,95.90
2019-02-22T04:43:36.628Z,95.40
2019-02-22T04:44:39.461Z,95.40
2019-02-22T04:45:43.167Z,95.80
2019-02-22T04:46:45.835Z,95.60
2019-02-22T04:47:48.560Z,95.50
2019-02-22T04:48:51.276Z,95.60
2019-02-22T04:49:54.089Z,95.60
2019-02-22T04:50:56.639Z,95.80
2019-02-22T04:51:59.174Z,95.60
2019-02-22T04:53:01.894Z,95.60
2019-02-22T04:54:04.457Z,95.70
2019-02-22T04:55:07.121Z,95.80
2019-02-22T04:56:10.117Z,95.90
2019-02-22T04:57:12.743Z,95.50
2019-02-22T04:58:15.466Z,95.50
2019-02-22T04:59:18.230Z,95.60
2019-02-22T05:00:20.774Z,95.80
2019-02-22T05:01:23.387Z,95.50
2019-02-22T05:02:26.413Z,95.60
2019-02-22T05:03:29.355Z,95.60
2019-02-22T05:04:32.076Z,95.70
2019-02-22T05:05:34.774Z,95.50
2019-02-22T05:06:37.328Z,95.50
2019-02-22T05:07:39.982Z,95.50
2019-02-22T05:08:42.941Z,95.50
2019-02-22T05:09:45.701Z,95.50
2019-02-22T05:10:48.563Z,95.80
2019-02-22T05:11:51.409Z,95.50
2019-02-22T05:12:54.214Z,95.50
2019-02-22T05:13:56.977Z,95.50
2019-02-22T05:15:11.474Z,95.40
2019-02-22T05:16:04.365Z,95.30
2019-02-22T05:17:07.063Z,95.30
2019-02-22T05:18:09.696Z,95.40
2019-02-22T05:19:12.411Z,95.50
2019-02-22T05:20:15.145Z,95.50
2019-02-22T05:21:17.968Z,95.80
2019-02-22T05:22:20.712Z,95.60
2019-02-22T05:23:23.392Z,95.50
2019-02-22T05:24:26.046Z,95.50
2019-02-22T05:25:28.827Z,95.60
2019-02-22T05:26:31.556Z,95.50
2019-02-22T05:27:34.266Z,95.60
2019-02-22T05:28:36.952Z,95.50
2019-02-22T05:29:39.673Z,95.50
2019-02-22T05:30:48.663Z,95.60
2019-02-22T05:31:51.350Z,95.60
2019-02-22T05:32:54.099Z,95.80
2019-02-22T05:33:56.887Z,95.60
2019-02-22T05:34:59.626Z,95.60
2019-02-22T05:36:02.215Z,95.70
2019-02-22T05:37:05.013Z,95.70
2019-02-22T05:38:12.677Z,95.80
2019-02-22T05:39:19.144Z,96.00
2019-02-22T05:40:20.144Z,95.80
2019-02-22T05:41:22.858Z,95.80
2019-02-22T05:42:28.533Z,95.60
2019-02-22T05:43:30.578Z,95.90
2019-02-22T05:44:34.355Z,95.30
2019-02-22T05:45:37.144Z,95.40
2019-02-22T05:46:39.996Z,95.60
2019-02-22T05:47:42.745Z,95.60
2019-02-22T05:48:45.613Z,95.70
2019-02-22T05:49:48.309Z,95.90
2019-02-22T05:50:50.935Z,95.60
2019-02-22T05:51:53.748Z,95.50
2019-02-22T05:52:59.733Z,95.60
2019-02-22T05:54:02.566Z,95.70
2019-02-22T05:55:05.383Z,95.80
2019-02-22T05:56:08.084Z,95.80
2019-02-22T05:57:10.841Z,95.60
2019-02-22T05:58:13.722Z,95.60
2019-02-22T05:59:18.338Z,95.50
2019-02-22T06:00:25.476Z,95.70
2019-02-22T06:01:30.328Z,95.70
2019-02-22T06:02:35.297Z,95.90
2019-02-22T06:03:38.378Z,95.80
2019-02-22T06:04:43.416Z,95.60
2019-02-22T06:05:46.283Z,95.50
2019-02-22T06:06:50.860Z,95.50
2019-02-22T06:07:53.753Z,95.40
2019-02-22T06:08:56.440Z,95.50
2019-02-22T06:09:59.269Z,95.50
2019-02-22T06:11:05.191Z,95.60
2019-02-22T06:12:11.368Z,95.60
2019-02-22T06:13:14.277Z,96.00
2019-02-22T06:14:19.702Z,95.60
2019-02-22T06:15:22.813Z,95.70
2019-02-22T06:16:29.521Z,95.60
2019-02-22T06:17:34.090Z,95.50
2019-02-22T06:18:37.014Z,95.60
2019-02-22T06:19:46.420Z,95.60
2019-02-22T06:20:51.532Z,95.70
2019-02-22T06:23:08.470Z,95.50
2019-02-22T06:24:22.789Z,95.70
2019-02-22T06:25:29.844Z,95.60
2019-02-22T06:26:41.076Z,95.70
2019-02-22T06:27:51.524Z,95.50
2019-02-22T06:28:57.674Z,95.60
2019-02-22T06:30:04.553Z,95.50
2019-02-22T06:31:08.732Z,95.70
2019-02-22T06:32:11.980Z,95.70
2019-02-22T06:33:14.989Z,95.70
2019-02-22T06:34:17.719Z,95.80
2019-02-22T06:35:27.438Z,96.20
2019-02-22T06:36:30.373Z,95.90
2019-02-22T06:37:36.469Z,95.50
2019-02-22T06:38:43.072Z,95.80
2019-02-22T06:39:53.086Z,95.70
2019-02-22T06:40:59.496Z,95.50
2019-02-22T06:42:02.174Z,95.60
2019-02-22T06:43:05.205Z,95.50
2019-02-22T06:44:11.845Z,95.50
2019-02-22T06:45:12.777Z,95.70
2019-02-22T06:46:27.757Z,95.60
2019-02-22T06:47:30.878Z,95.80
2019-02-22T06:48:35.849Z,95.80
2019-02-22T06:51:52.056Z,95.80
2019-02-22T06:53:41.885Z,95.80
2019-02-22T06:54:47.050Z,95.80
2019-02-22T06:55:52.232Z,95.70
2019-02-22T06:56:55.346Z,95.90
2019-02-22T06:58:02.349Z,95.80
2019-02-22T06:59:07.327Z,95.80
2019-02-22T07:00:10.797Z,95.80
2019-02-22T07:01:15.453Z,95.90
2019-02-22T07:02:18.736Z,96.00
2019-02-22T07:03:22.852Z,95.90
2019-02-22T07:04:32.807Z,95.90
2019-02-22T07:05:35.959Z,96.00
2019-02-22T07:06:38.855Z,95.90
2019-02-22T07:07:53.978Z,95.90
2019-02-22T07:09:00.902Z,95.90
2019-02-22T07:10:08.595Z,95.80
2019-02-22T07:11:32.367Z,95.80
2019-02-22T07:12:42.427Z,95.80
2019-02-22T07:13:53.206Z,95.70
2019-02-22T07:16:20.286Z,95.40
2019-02-22T07:17:23.054Z,95.50
2019-02-22T07:18:27.105Z,95.40
2019-02-22T07:19:31.951Z,95.50
2019-02-22T07:20:35.790Z,95.80
2019-02-22T07:21:51.856Z,95.80
2019-02-22T07:22:48.321Z,95.60
2019-02-22T07:23:54.400Z,96.00
2019-02-22T07:25:03.509Z,95.60
2019-02-22T07:26:13.798Z,95.60
2019-02-22T07:27:18.489Z,95.70
2019-02-22T07:28:24.115Z,95.70
2019-02-22T07:30:01.092Z,95.70
2019-02-22T07:31:04.384Z,95.80
2019-02-22T07:32:12.703Z,95.50
2019-02-22T07:33:15.533Z,95.60
2019-02-22T07:34:18.213Z,95.60
2019-02-22T07:35:30.631Z,95.50
2019-02-22T07:36:33.508Z,95.50
2019-02-22T07:37:42.596Z,95.40
2019-02-22T07:38:45.312Z,95.40
2019-02-22T07:39:48.108Z,95.60
2019-02-22T07:40:53.551Z,95.50
2019-02-22T07:41:56.295Z,95.50
2019-02-22T07:43:07.695Z,95.20
2019-02-22T07:44:04.098Z,95.50
2019-02-22T07:45:09.217Z,95.60
2019-02-22T07:46:11.970Z,95.60
2019-02-22T07:47:14.581Z,95.70
2019-02-22T07:48:17.352Z,95.50
2019-02-22T07:49:24.342Z,95.60
2019-02-22T07:50:28.851Z,95.40
2019-02-22T07:51:31.539Z,95.50
2019-02-22T07:52:34.169Z,95.60
2019-02-22T07:53:37.174Z,95.50
2019-02-22T07:54:44.721Z,95.50
2019-02-22T07:55:47.762Z,95.30
2019-02-22T07:56:51.576Z,95.40
2019-02-22T07:57:56.651Z,95.50
2019-02-22T07:58:59.564Z,95.40
2019-02-22T08:00:02.342Z,95.50
2019-02-22T08:01:05.620Z,95.50
2019-02-22T08:02:08.455Z,95.50
2019-02-22T08:03:13.288Z,95.60
2019-02-22T08:04:16.068Z,95.50
2019-02-22T08:05:22.012Z,95.50
2019-02-22T08:06:27.728Z,95.50
2019-02-22T08:07:31.043Z,95.40
2019-02-22T08:08:33.966Z,95.40
2019-02-22T08:09:36.807Z,95.50
2019-02-22T08:10:46.846Z,95.40
2019-02-22T08:11:49.658Z,95.90
2019-02-22T08:12:56.695Z,95.40
2019-02-22T08:13:59.397Z,95.20
2019-02-22T08:15:09.366Z,95.40
2019-02-22T08:16:14.812Z,95.40
2019-02-22T08:17:19.375Z,94.80
2019-02-22T08:18:27.149Z,95.00
2019-02-22T08:19:30.034Z,95.10
2019-02-22T08:20:35.938Z,94.90
2019-02-22T08:21:43.559Z,95.00
2019-02-22T08:22:48.562Z,95.20
2019-02-22T08:23:51.518Z,95.00
2019-02-22T08:24:55.073Z,95.00
2019-02-22T08:26:00.824Z,95.10
2019-02-22T08:27:13.343Z,95.20
2019-02-22T08:28:17.085Z,95.40
2019-02-22T08:29:23.071Z,95.10
2019-02-22T08:30:30.318Z,95.20
2019-02-22T08:31:36.069Z,95.00
2019-02-22T08:32:44.946Z,95.10
2019-02-22T08:33:48.535Z,95.00
2019-02-22T08:35:05.855Z,95.00
2019-02-22T08:36:14.661Z,95.20
2019-02-22T08:37:19.731Z,95.40
2019-02-22T08:38:48.117Z,95.20
2019-02-22T08:39:59.075Z,95.30
2019-02-22T08:41:03.824Z,95.00
2019-02-22T08:42:22.760Z,94.80
2019-02-22T08:44:48.862Z,95.00
2019-02-22T08:45:53.809Z,94.90
2019-02-22T08:46:57.079Z,95.20
2019-02-22T08:48:02.471Z,94.60
2019-02-22T08:49:09.845Z,94.40
2019-02-22T08:50:16.715Z,94.70
2019-02-22T08:51:20.042Z,95.00
2019-02-22T08:52:25.786Z,95.30
2019-02-22T08:53:30.550Z,95.00
2019-02-22T08:54:46.669Z,95.00
2019-02-22T08:55:48.217Z,94.90
2019-02-22T08:57:00.547Z,94.90
2019-02-22T08:58:09.396Z,94.80
2019-02-22T08:59:16.874Z,94.90
2019-02-22T09:00:21.734Z,94.80
2019-02-22T09:01:29.345Z,94.90
2019-02-22T09:02:32.315Z,94.40
2019-02-22T09:03:36.035Z,94.80
2019-02-22T09:04:44.151Z,95.00
2019-02-22T09:05:47.392Z,95.00
2019-02-22T09:06:53.710Z,94.80
2019-02-22T09:07:57.838Z,94.80
2019-02-22T09:09:01.345Z,94.80
2019-02-22T09:10:08.577Z,95.00
2019-02-22T09:11:12.688Z,94.90
2019-02-22T09:12:19.591Z,94.90
2019-02-22T09:13:26.570Z,94.70
2019-02-22T09:14:29.755Z,94.50
2019-02-22T09:15:41.544Z,94.80
2019-02-22T09:16:45.088Z,94.60
2019-02-22T09:17:55.408Z,94.50
2019-02-22T09:19:00.301Z,94.70
2019-02-22T09:20:03.053Z,94.50
2019-02-22T09:21:10.745Z,94.50
2019-02-22T09:22:31.064Z,94.40
2019-02-22T09:24:10.167Z,94.50
2019-02-22T09:25:14.563Z,94.30
2019-02-22T09:26:17.107Z,94.00
2019-02-22T09:27:19.666Z,93.90
2019-02-22T09:28:22.347Z,94.20
2019-02-22T09:29:24.941Z,93.70
2019-02-22T09:30:27.765Z,93.90
2019-02-22T09:31:30.290Z,93.90
2019-02-22T09:32:32.934Z,94.20
2019-02-22T09:33:35.563Z,94.00
2019-02-22T09:34:38.158Z,93.80
2019-02-22T09:35:40.867Z,94.10
2019-02-22T09:36:43.603Z,93.90
2019-02-22T09:37:46.333Z,93.80
2019-02-22T09:38:48.905Z,93.80
2019-02-22T09:39:53.545Z,93.80
2019-02-22T09:40:56.167Z,93.70
2019-02-22T09:41:58.740Z,93.80
2019-02-22T09:43:01.277Z,93.70
2019-02-22T09:44:03.813Z,93.70
2019-02-22T09:45:08.014Z,93.70
2019-02-22T09:46:10.840Z,93.50
2019-02-22T09:47:13.423Z,93.80
2019-02-22T09:48:15.965Z,93.80
2019-02-22T09:49:18.552Z,93.80
2019-02-22T09:50:21.149Z,93.70
2019-02-22T09:51:23.666Z,94.00
2019-02-22T09:52:26.212Z,93.90
2019-02-22T09:53:28.961Z,93.40
2019-02-22T09:54:31.530Z,93.40
2019-02-22T09:55:34.308Z,93.60
2019-02-22T09:56:36.882Z,93.50
2019-02-22T09:57:39.638Z,93.40
2019-02-22T09:58:44.027Z,92.60
2019-02-22T09:59:46.581Z,93.40
2019-02-22T10:00:49.241Z,93.50
2019-02-22T10:01:52.858Z,93.00
2019-02-22T10:02:55.984Z,93.50
2019-02-22T10:04:00.040Z,93.50
2019-02-22T10:05:03.040Z,93.50
2019-02-22T10:06:05.590Z,93.40
2019-02-22T10:07:08.291Z,93.20
2019-02-22T10:08:10.956Z,92.90
2019-02-22T10:09:13.535Z,93.60
2019-02-22T10:10:16.190Z,93.30
2019-02-22T10:11:19.092Z,93.40
2019-02-22T10:12:21.682Z,93.50
2019-02-22T10:13:24.289Z,93.60
2019-02-22T10:14:28.533Z,93.40
2019-02-22T10:15:31.530Z,93.80
2019-02-22T10:16:34.241Z,94.00
2019-02-22T10:17:38.277Z,93.70
2019-02-22T10:18:40.990Z,93.30
2019-02-22T10:19:43.840Z,93.60
2019-02-22T10:20:46.419Z,93.50
2019-02-22T10:21:49.076Z,93.10
2019-02-22T10:22:51.597Z,93.50
2019-02-22T10:23:54.298Z,93.60
2019-02-22T10:24:56.958Z,93.40
2019-02-22T10:25:59.553Z,93.30
2019-02-22T10:27:03.205Z,93.30
2019-02-22T10:28:16.898Z,93.20
2019-02-22T10:29:10.867Z,93.00
2019-02-22T10:30:13.703Z,93.20
2019-02-22T10:31:16.245Z,92.70
2019-02-22T10:32:18.920Z,93.30
2019-02-22T10:33:23.402Z,93.30
2019-02-22T10:34:26.091Z,93.30
2019-02-22T10:35:28.874Z,92.40
2019-02-22T10:36:31.672Z,92.90
2019-02-22T10:37:34.320Z,92.70
2019-02-22T10:38:36.974Z,92.70
2019-02-22T10:39:39.543Z,92.90
2019-02-22T10:40:42.215Z,92.40
2019-02-22T10:41:44.970Z,92.70
2019-02-22T10:42:49.354Z,92.90
2019-02-22T10:43:51.864Z,92.60
2019-02-22T10:44:54.730Z,92.20
2019-02-22T10:45:57.321Z,92.40
2019-02-22T10:46:59.899Z,92.70
2019-02-22T10:48:02.523Z,92.60
2019-02-22T10:49:05.058Z,92.60
2019-02-22T10:50:08.185Z,92.50
2019-02-22T10:51:10.767Z,92.50
2019-02-22T10:52:13.394Z,92.60
2019-02-22T10:53:16.229Z,91.80
2019-02-22T10:54:18.891Z,92.30
2019-02-22T10:55:21.696Z,92.30
2019-02-22T10:56:24.430Z,92.00
2019-02-22T10:57:28.048Z,92.10
2019-02-22T10:58:30.860Z,92.60
2019-02-22T10:59:33.728Z,92.40
2019-02-22T11:00:38.168Z,92.40
2019-02-22T11:01:44.184Z,92.50
2019-02-22T11:02:46.762Z,91.80
2019-02-22T11:03:49.592Z,92.00
2019-02-22T11:04:52.250Z,92.40
2019-02-22T11:05:55.046Z,92.40
2019-02-22T11:06:57.711Z,92.00
2019-02-22T11:08:00.402Z,92.20
2019-02-22T11:09:04.560Z,92.80
2019-02-22T11:10:08.519Z,92.70
2019-02-22T11:11:11.075Z,92.50
2019-02-22T11:12:13.679Z,92.50
2019-02-22T11:13:16.356Z,92.50
2019-02-22T11:14:28.721Z,91.90
2019-02-22T11:15:23.576Z,92.40
2019-02-22T11:16:26.146Z,92.00
2019-02-22T11:17:28.794Z,92.10
2019-02-22T11:18:31.565Z,92.40
2019-02-22T11:19:47.044Z,91.60
2019-02-22T11:20:49.644Z,92.30
2019-02-22T11:21:52.473Z,92.10
2019-02-22T11:22:55.126Z,92.00
2019-02-22T11:23:57.745Z,92.30
2019-02-22T11:25:00.356Z,91.90
2019-02-22T11:26:03.004Z,91.90
2019-02-22T11:27:05.546Z,92.20
2019-02-22T11:28:08.071Z,91.90
2019-02-22T11:29:10.834Z,92.40
2019-02-22T11:30:13.479Z,92.20
2019-02-22T11:31:17.370Z,92.60
2019-02-22T11:32:20.248Z,92.60
2019-02-22T11:33:22.803Z,92.50
2019-02-22T11:34:25.387Z,92.90
2019-02-22T11:35:28.051Z,92.50
2019-02-22T11:36:30.734Z,93.10
2019-02-22T11:37:33.272Z,93.20
2019-02-22T11:38:35.875Z,93.60
2019-02-22T11:39:38.634Z,93.80
2019-02-22T11:40:41.380Z,93.80
2019-02-22T11:41:44.170Z,93.50
2019-02-22T11:42:47.090Z,93.40
2019-02-22T11:43:50.114Z,93.20
2019-02-22T11:44:52.814Z,93.30
2019-02-22T11:45:55.503Z,93.80
2019-02-22T11:46:58.222Z,93.50
2019-02-22T11:48:13.715Z,93.70
2019-02-22T11:49:29.323Z,93.50
2019-02-22T11:50:32.189Z,93.00
2019-02-22T11:51:34.784Z,93.50
2019-02-22T11:52:37.383Z,93.40
2019-02-22T11:53:40.137Z,93.30
2019-02-22T11:54:42.854Z,93.20
2019-02-22T11:55:46.028Z,93.40
2019-02-22T11:56:49.360Z,93.30
2019-02-22T11:57:53.420Z,93.20
2019-02-22T11:58:56.225Z,93.30
2019-02-22T11:59:58.822Z,93.30
2019-02-22T12:01:01.937Z,93.10
2019-02-22T12:02:05.797Z,92.90
2019-02-22T12:03:24.740Z,93.30
2019-02-22T12:04:25.845Z,93.30
2019-02-22T12:05:28.528Z,92.90
2019-02-22T12:06:31.207Z,93.00
2019-02-22T12:07:33.901Z,93.40
2019-02-22T12:08:36.639Z,93.30
2019-02-22T12:09:39.287Z,92.70
2019-02-22T12:10:42.178Z,93.00
2019-02-22T12:11:44.736Z,93.20
2019-02-22T12:12:47.795Z,93.00
2019-02-22T12:13:51.264Z,93.30
2019-02-22T12:14:54.164Z,93.00
2019-02-22T12:15:56.973Z,92.80
2019-02-22T12:17:12.823Z,92.10
2019-02-22T12:18:15.610Z,92.00
2019-02-22T12:19:18.646Z,91.60
2019-02-22T12:20:34.664Z,92.00
2019-02-22T12:21:37.610Z,91.80
2019-02-22T12:22:40.571Z,92.30
2019-02-22T12:23:43.211Z,92.10
2019-02-22T12:24:45.966Z,91.90
2019-02-22T12:25:48.599Z,91.80
2019-02-22T12:26:51.287Z,91.80
2019-02-22T12:27:53.843Z,91.50
2019-02-22T12:28:58.390Z,91.60
2019-02-22T12:30:03.732Z,91.50
2019-02-22T12:31:09.825Z,91.10
2019-02-22T12:32:12.636Z,90.90
2019-02-22T12:33:15.404Z,91.00
2019-02-22T12:34:18.284Z,91.00
2019-02-22T12:35:20.911Z,91.30
2019-02-22T12:36:36.381Z,90.60
2019-02-22T12:37:39.222Z,90.40
2019-02-22T12:38:41.842Z,91.60
2019-02-22T12:39:44.452Z,91.40
2019-02-22T12:40:47.547Z,91.10
2019-02-22T12:41:50.519Z,90.70
2019-02-22T12:42:53.259Z,91.00
2019-02-22T12:43:55.951Z,91.40
2019-02-22T12:45:02.850Z,91.00
2019-02-22T12:46:03.166Z,90.50
2019-02-22T12:47:07.511Z,89.70
2019-02-22T12:48:10.426Z,89.10
2019-02-22T12:49:13.059Z,88.60
2019-02-22T12:50:15.653Z,89.80
2019-02-22T12:51:18.325Z,90.00
2019-02-22T12:52:20.990Z,90.30
2019-02-22T12:53:23.656Z,90.00
2019-02-22T12:54:26.319Z,90.00
2019-02-22T12:55:28.991Z,90.00
2019-02-22T12:57:38.265Z,88.80
2019-02-22T12:58:40.833Z,87.50
2019-02-22T12:59:43.755Z,85.40
2019-02-22T13:00:47.440Z,87.20
2019-02-22T13:01:53.695Z,87.20
2019-02-22T13:03:02.026Z,87.70
2019-02-22T13:04:13.914Z,89.20
2019-02-22T13:05:16.927Z,88.30
2019-02-22T13:06:21.327Z,87.20
2019-02-22T13:07:23.902Z,85.00
2019-02-22T13:08:26.553Z,84.70
2019-02-22T13:09:36.532Z,86.80
2019-02-22T13:10:33.773Z,85.50
2019-02-22T13:11:36.444Z,84.60
2019-02-22T13:12:39.060Z,85.20
2019-02-22T13:13:41.587Z,85.70
2019-02-22T13:14:44.192Z,86.00
2019-02-22T13:15:46.846Z,84.90
2019-02-22T13:16:49.408Z,85.00
2019-02-22T13:17:52.030Z,85.00
2019-02-22T13:18:54.618Z,86.40
2019-02-22T13:19:57.175Z,86.60
2019-02-22T13:20:59.813Z,86.30
2019-02-22T13:22:02.407Z,85.30
2019-02-22T13:23:05.017Z,84.70
2019-02-22T13:24:07.645Z,85.20
2019-02-22T13:25:10.411Z,86.20
2019-02-22T13:26:13.029Z,86.20
2019-02-22T13:27:15.760Z,86.50
2019-02-22T13:28:18.513Z,84.20
2019-02-22T13:29:21.276Z,84.80
2019-02-22T13:30:24.256Z,86.00
2019-02-22T13:31:30.139Z,86.80
2019-02-22T13:32:31.472Z,83.80
2019-02-22T13:33:34.085Z,84.90
2019-02-22T13:34:36.684Z,85.30
2019-02-22T13:35:39.375Z,84.00
2019-02-22T13:36:41.974Z,83.70
2019-02-22T13:37:44.769Z,84.40
2019-02-22T13:38:49.419Z,82.40
2019-02-22T13:39:52.204Z,82.60
2019-02-22T13:40:55.277Z,83.80
2019-02-22T13:41:57.898Z,85.00
2019-02-22T13:43:00.483Z,85.00
2019-02-22T13:44:03.384Z,84.20
2019-02-22T13:45:07.200Z,85.20
2019-02-22T13:46:10.155Z,86.40
2019-02-22T13:47:12.701Z,86.60
2019-02-22T13:48:15.407Z,85.90
2019-02-22T13:49:17.958Z,84.30
2019-02-22T13:50:20.736Z,83.60
2019-02-22T13:51:23.323Z,83.50
2019-02-22T13:52:25.955Z,84.20